Time;durP1;ratioP1;P1;durP2;ratioP2;P2;SDS_P1;SDS_P2;PMS_P1;PMS_P2;Temp;Humidity;BMP_temperature;BMP_pressure;BME280_temperature;BME280_humidity;BME280_pressure;Samples;Min_cycle;Max_cycle;Signal;HPM_P1;HPM_P2
2022/01/15 00:01:38;;;;;;;54.80;38.23;;;0.10;1.00;;;;;;5110528;28;20745;-75
2022/01/15 00:04:05;;;;;;;52.83;37.17;;;0.00;1.00;;;;;;5111415;28;20731;-75
2022/01/15 00:06:32;;;;;;;51.67;35.27;;;0.00;1.00;;;;;;5111276;28;20258;-73
2022/01/15 00:08:59;;;;;;;55.37;36.27;;;-0.10;1.00;;;;;;5111980;28;20207;-75
2022/01/15 00:11:26;;;;;;;49.67;37.07;;;0.00;1.00;;;;;;5111570;28;20222;-74
2022/01/15 00:13:56;;;;;;;57.97;37.90;;;-0.10;1.00;;;;;;5110807;28;20666;-75
2022/01/15 00:16:32;;;;;;;57.07;39.43;;;-0.10;1.00;;;;;;5111704;28;20635;-75
2022/01/15 00:19:06;;;;;;;58.93;39.77;;;-0.10;1.00;;;;;;5111514;28;20280;-72
2022/01/15 00:21:34;;;;;;;52.43;40.87;;;-0.20;1.00;;;;;;5110802;28;20215;-72
2022/01/15 00:24:01;;;;;;;50.70;37.10;;;-0.20;1.00;;;;;;5111448;28;20201;-73
2022/01/15 00:26:28;;;;;;;46.63;37.57;;;-0.20;1.00;;;;;;5111669;28;20200;-73
2022/01/15 00:28:55;;;;;;;53.40;39.17;;;-0.20;1.00;;;;;;5110645;28;20254;-73
2022/01/15 00:31:22;;;;;;;53.97;41.30;;;-0.20;1.00;;;;;;5111106;28;20844;-74
2022/01/15 00:33:49;;;;;;;55.63;38.37;;;-0.20;1.00;;;;;;5111059;28;20607;-78
2022/01/15 00:36:17;;;;;;;49.67;37.37;;;-0.20;1.00;;;;;;5111519;28;20228;-76
2022/01/15 00:38:45;;;;;;;53.03;37.13;;;-0.30;1.00;;;;;;5110893;28;20201;-75
2022/01/15 00:41:12;;;;;;;55.93;37.63;;;-0.40;1.00;;;;;;5111093;28;20242;-75
2022/01/15 00:43:41;;;;;;;55.17;37.57;;;-0.40;1.00;;;;;;5110616;28;20583;-75
2022/01/15 00:46:08;;;;;;;48.67;37.07;;;-0.40;1.00;;;;;;5110982;28;20205;-74
2022/01/15 00:48:35;;;;;;;54.63;35.93;;;-0.40;1.00;;;;;;5110914;28;20257;-75
2022/01/15 00:51:02;;;;;;;55.93;36.03;;;-0.50;1.00;;;;;;5111110;28;20204;-73
2022/01/15 00:53:30;;;;;;;48.47;34.87;;;-0.50;1.00;;;;;;5111323;28;20205;-73
2022/01/15 00:55:57;;;;;;;55.17;37.40;;;-0.50;1.00;;;;;;5111107;28;20739;-73
2022/01/15 00:58:24;;;;;;;51.43;34.53;;;-0.60;1.00;;;;;;5111159;28;20201;-73
2022/01/15 01:00:51;;;;;;;48.97;34.20;;;-0.50;1.00;;;;;;5110574;28;20200;-75
2022/01/15 01:03:18;;;;;;;47.27;34.47;;;-0.60;1.00;;;;;;5111094;28;20622;-77
2022/01/15 01:05:45;;;;;;;43.73;33.20;;;-0.50;1.00;;;;;;5110613;28;20625;-76
2022/01/15 01:08:12;;;;;;;46.27;32.07;;;-0.50;1.00;;;;;;5110818;28;20736;-75
2022/01/15 01:10:53;;;;;;;47.57;33.23;;;-0.50;1.00;;;;;;5110223;28;20204;-75
2022/01/15 01:24:57;;;;;;;46.13;33.97;;;-0.50;1.00;;;;;;5108956;27;20625;-72
2022/01/15 01:27:28;;;;;;;41.23;31.07;;;-0.70;1.00;;;;;;5108562;28;20617;-70
2022/01/15 01:30:13;;;;;;;48.90;35.10;;;-0.60;1.00;;;;;;5108327;28;20201;-73
2022/01/15 01:32:48;;;;;;;44.73;33.07;;;-0.60;1.00;;;;;;5108204;28;20204;-72
2022/01/15 01:35:28;;;;;;;41.50;31.00;;;-0.70;1.00;;;;;;5108740;28;20208;-73
2022/01/15 01:37:59;;;;;;;44.00;31.30;;;-0.70;1.00;;;;;;5108444;28;20201;-77
2022/01/15 01:40:38;;;;;;;40.73;29.23;;;-0.70;1.00;;;;;;5108311;28;20672;-72
2022/01/15 01:43:15;;;;;;;42.07;29.73;;;-0.80;1.00;;;;;;5106900;28;20322;-72
2022/01/15 01:45:46;;;;;;;44.60;33.17;;;-0.80;1.00;;;;;;5087874;28;20296;-74
2022/01/15 01:48:14;;;;;;;43.40;29.23;;;-0.80;1.00;;;;;;5087889;28;20570;-76
2022/01/15 01:50:41;;;;;;;43.03;28.60;;;-0.80;1.00;;;;;;5087517;28;20669;-73
2022/01/15 01:53:08;;;;;;;46.40;31.60;;;-0.90;1.00;;;;;;5087790;28;20669;-74
2022/01/15 01:55:37;;;;;;;41.17;30.73;;;-0.80;1.00;;;;;;5087299;28;20259;-74
2022/01/15 01:58:05;;;;;;;35.27;27.07;;;-0.90;1.00;;;;;;5087973;28;20259;-75
2022/01/15 02:00:32;;;;;;;43.43;29.13;;;-0.90;1.00;;;;;;5087860;28;20209;-74
2022/01/15 02:03:01;;;;;;;46.33;29.70;;;-0.80;1.00;;;;;;5087877;28;20229;-74
2022/01/15 02:05:28;;;;;;;40.10;27.83;;;-0.80;1.00;;;;;;5087705;28;20201;-75
2022/01/15 02:07:55;;;;;;;39.23;29.03;;;-0.80;1.00;;;;;;5087531;28;20258;-74
2022/01/15 02:10:22;;;;;;;38.23;27.03;;;-0.80;1.00;;;;;;5087320;28;20611;-71
2022/01/15 02:12:54;;;;;;;35.87;26.13;;;-0.90;1.00;;;;;;5087244;28;20205;-72
2022/01/15 02:15:23;;;;;;;41.73;27.20;;;-0.90;1.00;;;;;;5087577;28;20206;-72
2022/01/15 02:17:51;;;;;;;33.83;26.17;;;-0.90;1.00;;;;;;5086798;28;20681;-73
2022/01/15 02:25:56;;;;;;;38.90;26.83;;;-1.00;1.00;;;;;;5087314;28;20291;-73
2022/01/15 02:28:26;;;;;;;37.97;26.97;;;-0.90;1.00;;;;;;5087569;28;20275;-73
2022/01/15 02:30:54;;;;;;;35.70;25.47;;;-1.00;1.00;;;;;;5086726;28;20206;-73
2022/01/15 02:33:21;;;;;;;36.37;26.93;;;-1.00;1.00;;;;;;5087230;28;20206;-73
2022/01/15 02:35:49;;;;;;;35.33;26.43;;;-1.00;1.00;;;;;;5075802;28;20264;-73
2022/01/15 02:38:16;;;;;;;33.93;25.67;;;-1.00;1.00;;;;;;5073364;28;20259;-73
2022/01/15 02:40:44;;;;;;;34.10;23.53;;;-1.00;1.00;;;;;;5073017;28;20210;-73
2022/01/15 02:43:15;;;;;;;30.47;25.03;;;-0.90;1.00;;;;;;5073335;28;20277;-73
2022/01/15 02:45:44;;;;;;;29.27;23.33;;;-1.00;1.00;;;;;;5073145;28;20217;-72
2022/01/15 02:48:12;;;;;;;27.87;22.53;;;-1.00;1.00;;;;;;5073526;28;20593;-72
2022/01/15 02:50:40;;;;;;;31.37;23.03;;;-1.00;1.00;;;;;;5073077;28;20206;-74
2022/01/15 02:53:10;;;;;;;37.20;24.87;;;-1.00;1.00;;;;;;5072853;28;20626;-73
2022/01/15 02:55:41;;;;;;;35.63;23.07;;;-0.90;1.00;;;;;;5073090;28;20666;-74
2022/01/15 02:58:08;;;;;;;37.87;25.40;;;-0.90;1.00;;;;;;5073293;28;20255;-76
2022/01/15 03:00:35;;;;;;;36.60;24.00;;;-1.00;1.00;;;;;;5072753;28;20673;-73
2022/01/15 03:03:02;;;;;;;31.20;22.90;;;-1.10;1.00;;;;;;5072956;28;20248;-74
2022/01/15 03:05:29;;;;;;;32.00;24.03;;;-1.10;1.00;;;;;;5073010;28;20620;-73
2022/01/15 03:07:56;;;;;;;31.80;22.70;;;-1.20;1.00;;;;;;5072800;28;20271;-74
2022/01/15 03:10:25;;;;;;;32.43;23.53;;;-1.10;1.00;;;;;;5073166;28;20242;-72
2022/01/15 03:12:54;;;;;;;29.43;21.97;;;-1.10;1.00;;;;;;5072758;28;20642;-73
2022/01/15 03:15:21;;;;;;;32.73;24.03;;;-1.10;1.00;;;;;;5072992;28;20202;-73
2022/01/15 03:17:48;;;;;;;28.63;21.50;;;-1.10;1.00;;;;;;5072206;28;20210;-75
2022/01/15 03:20:18;;;;;;;27.50;21.30;;;-1.20;1.00;;;;;;5072819;28;20207;-75
2022/01/15 03:22:45;;;;;;;31.00;23.17;;;-1.20;1.00;;;;;;5072403;28;20268;-76
2022/01/15 03:25:14;;;;;;;28.53;22.07;;;-1.20;1.00;;;;;;5072669;28;20290;-74
2022/01/15 03:27:42;;;;;;;29.27;22.43;;;-1.20;1.00;;;;;;5072477;28;20213;-75
2022/01/15 03:30:11;;;;;;;30.67;20.93;;;-1.30;1.00;;;;;;5072639;28;20206;-75
2022/01/15 03:32:43;;;;;;;30.53;21.10;;;-1.20;1.00;;;;;;5072099;28;20235;-74
2022/01/15 03:35:12;;;;;;;28.47;22.17;;;-1.20;1.00;;;;;;5072571;28;20237;-74
2022/01/15 03:37:39;;;;;;;32.03;23.37;;;-1.20;1.00;;;;;;5071814;28;20695;-73
2022/01/15 03:40:08;;;;;;;25.40;20.27;;;-1.30;1.00;;;;;;5072356;28;20209;-75
2022/01/15 03:42:35;;;;;;;46.43;22.30;;;-1.30;1.00;;;;;;5071918;28;20213;-75
2022/01/15 03:45:05;;;;;;;26.90;19.63;;;-1.30;1.00;;;;;;5072294;28;20226;-76
2022/01/15 03:47:32;;;;;;;26.20;19.33;;;-1.20;1.00;;;;;;5071106;28;20256;-74
2022/01/15 03:49:59;;;;;;;29.00;20.50;;;-1.20;1.00;;;;;;5072432;28;20259;-74
2022/01/15 03:52:26;;;;;;;30.20;21.20;;;-1.20;1.00;;;;;;5072323;28;20232;-76
2022/01/15 03:54:53;;;;;;;28.87;20.10;;;-1.20;1.00;;;;;;5071742;28;20213;-75
2022/01/15 03:57:21;;;;;;;27.97;19.97;;;-1.20;1.00;;;;;;5072295;28;20258;-77
2022/01/15 03:59:48;;;;;;;22.20;17.47;;;-1.10;1.00;;;;;;5071581;28;20591;-74
2022/01/15 04:02:16;;;;;;;29.17;18.67;;;-1.10;1.00;;;;;;5072217;28;20206;-75
2022/01/15 04:04:43;;;;;;;26.37;19.17;;;-1.10;1.00;;;;;;5071346;28;20234;-71
2022/01/15 04:07:10;;;;;;;27.80;18.93;;;-1.10;1.00;;;;;;5071869;28;20669;-76
2022/01/15 04:09:37;;;;;;;23.90;18.90;;;-1.10;1.00;;;;;;5071539;28;20213;-77
2022/01/15 04:12:05;;;;;;;25.97;19.23;;;-1.20;1.00;;;;;;5071814;28;20267;-76
2022/01/15 04:14:32;;;;;;;25.57;18.00;;;-1.20;1.00;;;;;;5071648;28;20202;-72
2022/01/15 04:16:59;;;;;;;23.73;18.40;;;-1.20;1.00;;;;;;5072062;28;20557;-75
2022/01/15 04:19:28;;;;;;;20.90;17.50;;;-1.20;1.00;;;;;;5071649;28;20263;-74
2022/01/15 04:21:55;;;;;;;30.33;20.17;;;-1.30;1.00;;;;;;5071488;28;20198;-74
2022/01/15 04:24:22;;;;;;;20.63;17.63;;;-1.30;1.00;;;;;;5071341;28;20229;-74
2022/01/15 04:26:49;;;;;;;26.47;18.23;;;-1.30;1.00;;;;;;5071075;28;21017;-73
2022/01/15 04:29:16;;;;;;;28.27;19.97;;;-1.20;1.00;;;;;;5071211;28;20279;-73
2022/01/15 04:31:51;;;;;;;31.73;20.67;;;-1.20;1.00;;;;;;5071120;28;20206;-72
2022/01/15 04:34:20;;;;;;;28.97;20.77;;;-1.20;1.00;;;;;;5071192;28;20216;-75
2022/01/15 04:36:49;;;;;;;32.33;19.70;;;-1.20;1.00;;;;;;5071052;28;20201;-79
2022/01/15 04:39:16;;;;;;;31.30;22.43;;;-1.30;1.00;;;;;;5071262;28;20233;-77
2022/01/15 04:41:43;;;;;;;34.17;23.17;;;-1.30;1.00;;;;;;5070627;28;20681;-77
2022/01/15 04:44:11;;;;;;;36.43;22.97;;;-1.30;1.00;;;;;;5071455;28;20238;-77
2022/01/15 04:46:39;;;;;;;30.53;20.67;;;-1.40;1.00;;;;;;5070908;28;20267;-75
2022/01/15 04:49:07;;;;;;;37.90;22.93;;;-1.60;1.00;;;;;;5071066;28;20202;-75
2022/01/15 04:51:34;;;;;;;34.60;21.67;;;-1.50;1.00;;;;;;5070658;28;20609;-75
2022/01/15 04:54:03;;;;;;;31.90;21.20;;;-1.50;1.00;;;;;;5070746;28;20267;-75
2022/01/15 04:56:30;;;;;;;30.47;22.33;;;-1.40;1.00;;;;;;5071236;28;20227;-75
2022/01/15 04:58:58;;;;;;;33.97;22.13;;;-1.40;1.00;;;;;;5071020;28;20696;-75
2022/01/15 05:01:25;;;;;;;32.00;22.37;;;-1.40;1.00;;;;;;5071420;28;20260;-73
2022/01/15 05:03:52;;;;;;;26.97;20.20;;;-1.40;1.00;;;;;;5070393;28;20209;-70
2022/01/15 05:06:19;;;;;;;28.17;19.80;;;-1.40;1.00;;;;;;5070810;28;20625;-75
2022/01/15 05:08:47;;;;;;;27.37;21.73;;;-1.50;1.00;;;;;;5070385;28;20209;-73
2022/01/15 05:11:26;;;;;;;26.60;21.07;;;-1.50;1.00;;;;;;5071107;28;20701;-71
2022/01/15 05:13:53;;;;;;;32.13;19.07;;;-1.50;1.00;;;;;;5070285;28;20214;-75
2022/01/15 05:16:20;;;;;;;25.10;19.27;;;-1.40;1.00;;;;;;5070604;28;20651;-73
2022/01/15 05:18:47;;;;;;;26.37;18.77;;;-1.40;1.00;;;;;;5070278;28;20206;-75
2022/01/15 05:21:15;;;;;;;26.70;19.93;;;-1.40;1.00;;;;;;5070737;28;20239;-76
2022/01/15 05:23:42;;;;;;;28.53;20.97;;;-1.40;1.00;;;;;;5070367;28;20217;-76
2022/01/15 05:26:11;;;;;;;26.60;20.30;;;-1.40;1.00;;;;;;5070905;28;20198;-77
2022/01/15 05:28:39;;;;;;;29.60;19.47;;;-1.50;1.00;;;;;;5070230;28;20214;-76
2022/01/15 05:31:06;;;;;;;26.43;19.33;;;-1.50;1.00;;;;;;5070772;28;20251;-74
2022/01/15 05:33:34;;;;;;;30.10;20.00;;;-1.50;99.90;;;;;;5070114;28;20203;-74
2022/01/15 05:36:01;;;;;;;26.83;18.67;;;-1.60;99.90;;;;;;5070956;28;20209;-73
2022/01/15 05:38:28;;;;;;;33.00;20.13;;;-1.70;99.90;;;;;;5071110;28;20209;-75
2022/01/15 05:40:55;;;;;;;30.30;20.63;;;-1.70;99.90;;;;;;5070371;28;20549;-75
2022/01/15 05:43:22;;;;;;;26.77;18.67;;;-1.80;99.90;;;;;;5070441;28;20618;-74
2022/01/15 05:45:51;;;;;;;30.97;21.37;;;-1.70;99.90;;;;;;5070037;28;20596;-74
2022/01/15 05:48:18;;;;;;;28.97;20.60;;;-1.70;99.90;;;;;;5070213;28;20629;-73
2022/01/15 05:50:45;;;;;;;25.97;17.63;;;-1.90;99.90;;;;;;5070378;28;20268;-73
2022/01/15 05:53:12;;;;;;;28.83;19.07;;;-1.90;99.90;;;;;;5070544;28;20263;-76
2022/01/15 05:55:39;;;;;;;28.93;19.73;;;-2.00;99.90;;;;;;5069992;28;20218;-73
2022/01/15 05:58:07;;;;;;;32.50;19.17;;;-2.10;1.00;;;;;;5070074;28;20255;-76
2022/01/15 06:00:34;;;;;;;24.03;18.23;;;-2.10;1.00;;;;;;5069634;28;20290;-75
2022/01/15 06:03:03;;;;;;;27.30;18.50;;;-2.10;1.00;;;;;;5069898;28;20225;-74
2022/01/15 06:05:30;;;;;;;29.40;18.33;;;-2.10;1.00;;;;;;5070449;28;20283;-74
2022/01/15 06:07:57;;;;;;;25.77;17.97;;;-2.10;1.00;;;;;;5070513;28;20307;-74
2022/01/15 06:10:24;;;;;;;27.20;18.50;;;-2.10;1.00;;;;;;5071931;28;20208;-74
2022/01/15 06:12:51;;;;;;;23.33;16.23;;;-2.20;1.00;;;;;;5073511;28;20255;-74
2022/01/15 06:15:18;;;;;;;24.87;16.50;;;-2.20;1.00;;;;;;5073717;28;20207;-75
2022/01/15 06:17:45;;;;;;;24.33;17.97;;;-2.10;1.00;;;;;;5073719;28;20205;-74
2022/01/15 06:20:15;;;;;;;23.73;15.77;;;-2.20;1.00;;;;;;5073859;28;20201;-74
2022/01/15 06:22:42;;;;;;;22.37;17.27;;;-2.20;1.00;;;;;;5073159;28;20205;-74
2022/01/15 06:25:10;;;;;;;23.10;18.17;;;-2.10;1.00;;;;;;5073660;28;20377;-75
2022/01/15 06:27:37;;;;;;;29.00;17.10;;;-2.10;1.00;;;;;;5073391;28;20205;-74
2022/01/15 06:30:05;;;;;;;25.97;17.87;;;-2.00;1.00;;;;;;5073553;28;20204;-74
2022/01/15 06:32:36;;;;;;;25.10;18.10;;;-2.00;1.00;;;;;;5073272;28;20210;-73
2022/01/15 06:35:04;;;;;;;28.17;18.43;;;-1.90;1.00;;;;;;5073467;28;20736;-73
2022/01/15 06:37:32;;;;;;;31.80;19.40;;;-1.90;1.00;;;;;;5073561;28;20540;-75
2022/01/15 06:40:00;;;;;;;29.70;18.63;;;-2.00;1.00;;;;;;5073607;28;20209;-74
2022/01/15 06:42:27;;;;;;;27.17;18.10;;;-1.90;99.90;;;;;;5073675;28;20202;-76
2022/01/15 06:44:54;;;;;;;31.33;18.80;;;-1.90;99.90;;;;;;5073072;28;20282;-75
2022/01/15 06:47:21;;;;;;;23.50;18.53;;;-1.90;99.90;;;;;;5073400;28;20660;-72
2022/01/15 06:49:48;;;;;;;24.87;18.97;;;-1.90;99.90;;;;;;5073167;28;20266;-72
2022/01/15 06:52:15;;;;;;;21.73;16.10;;;-1.90;99.90;;;;;;5073143;28;20205;-73
2022/01/15 06:54:43;;;;;;;23.97;15.23;;;-1.80;99.90;;;;;;5072810;28;20754;-75
2022/01/15 06:57:10;;;;;;;26.10;16.03;;;-1.90;99.90;;;;;;5073138;28;20205;-73
2022/01/15 06:59:37;;;;;;;22.93;16.80;;;-1.90;99.90;;;;;;5072516;28;20209;-76
2022/01/15 07:02:07;;;;;;;25.07;19.23;;;-1.80;83.20;;;;;;5073158;28;20209;-73
2022/01/15 07:04:34;;;;;;;27.37;21.17;;;-1.90;25.30;;;;;;5072549;28;20571;-73
2022/01/15 07:07:01;;;;;;;29.37;22.87;;;-1.80;22.40;;;;;;5073158;28;20202;-74
2022/01/15 07:09:28;;;;;;;23.57;17.50;;;-1.80;15.30;;;;;;5073065;28;20205;-73
2022/01/15 07:11:56;;;;;;;20.67;15.27;;;-1.80;1.00;;;;;;5072002;28;20652;-72
2022/01/15 07:14:23;;;;;;;19.73;16.30;;;-1.80;1.00;;;;;;5072684;28;20202;-73
2022/01/15 07:16:50;;;;;;;20.23;14.60;;;-1.80;1.00;;;;;;5072358;28;20248;-76
2022/01/15 07:19:17;;;;;;;24.10;16.87;;;-1.90;1.00;;;;;;5072796;28;20217;-75
2022/01/15 07:21:44;;;;;;;25.97;18.17;;;-1.80;1.00;;;;;;5072014;28;20263;-72
2022/01/15 07:24:12;;;;;;;18.30;15.80;;;-1.90;1.00;;;;;;5072573;28;20213;-73
2022/01/15 07:26:39;;;;;;;21.97;17.13;;;-2.00;1.00;;;;;;5071977;28;20242;-75
2022/01/15 07:29:14;;;;;;;22.67;16.17;;;-2.00;1.00;;;;;;5072396;28;20205;-73
2022/01/15 07:31:41;;;;;;;24.30;13.87;;;-1.90;11.90;;;;;;5072191;28;20205;-73
2022/01/15 07:34:08;;;;;;;20.80;14.73;;;-1.80;16.50;;;;;;5072348;28;20208;-73
2022/01/15 07:36:35;;;;;;;19.27;14.50;;;-1.90;1.00;;;;;;5071988;28;20265;-72
2022/01/15 07:39:02;;;;;;;25.57;15.33;;;-1.80;1.00;;;;;;5072735;28;20202;-78
2022/01/15 07:41:29;;;;;;;20.53;13.93;;;-1.80;1.00;;;;;;5073002;28;20727;-76
2022/01/15 07:43:56;;;;;;;22.23;14.47;;;-1.70;1.00;;;;;;5072188;28;20255;-75
2022/01/15 07:46:24;;;;;;;17.53;13.13;;;-1.70;1.00;;;;;;5072233;28;20282;-72
2022/01/15 07:48:51;;;;;;;22.33;15.73;;;-1.60;1.00;;;;;;5071767;28;20584;-73
2022/01/15 07:51:18;;;;;;;17.53;14.30;;;-1.30;1.00;;;;;;5072081;28;20213;-73
2022/01/15 07:53:46;;;;;;;21.23;14.80;;;-0.50;1.00;;;;;;5071971;28;20261;-73
2022/01/15 07:56:13;;;;;;;24.83;14.67;;;0.10;1.00;;;;;;5072054;28;20209;-73
2022/01/15 07:58:40;;;;;;;31.73;18.60;;;0.40;1.00;;;;;;5071300;28;20616;-73
2022/01/15 08:01:07;;;;;;;29.63;15.37;;;0.70;1.00;;;;;;5074338;28;20255;-73
2022/01/15 08:03:35;;;;;;;20.93;14.63;;;0.30;1.00;;;;;;5087043;28;20217;-75
2022/01/15 08:06:02;;;;;;;21.77;14.57;;;-0.10;1.00;;;;;;5074897;28;20238;-75
2022/01/15 08:08:29;;;;;;;16.60;12.87;;;0.00;1.00;;;;;;5087552;28;20205;-75
2022/01/15 08:10:56;;;;;;;20.77;14.03;;;0.00;1.00;;;;;;5091836;28;20255;-75
2022/01/15 08:13:23;;;;;;;19.20;12.93;;;-0.10;1.00;;;;;;5091502;28;20575;-75
2022/01/15 08:15:50;;;;;;;20.70;14.20;;;0.00;1.00;;;;;;5091228;28;20213;-75
2022/01/15 08:18:18;;;;;;;23.37;14.70;;;0.10;1.00;;;;;;5091819;28;20223;-75
2022/01/15 08:20:47;;;;;;;22.57;16.27;;;-0.20;1.00;;;;;;5091661;28;20216;-75
2022/01/15 08:23:14;;;;;;;25.43;15.57;;;-0.30;1.00;;;;;;5091644;28;20729;-76
2022/01/15 08:25:41;;;;;;;23.37;15.33;;;-0.30;1.00;;;;;;5091082;28;20282;-76
2022/01/15 08:28:08;;;;;;;25.20;14.63;;;-0.30;1.00;;;;;;5091600;28;20669;-75
2022/01/15 08:30:35;;;;;;;28.30;15.93;;;0.00;1.00;;;;;;5091159;28;20201;-76
2022/01/15 08:33:03;;;;;;;21.67;16.47;;;0.00;1.00;;;;;;5090686;28;20204;-76
2022/01/15 08:35:30;;;;;;;21.77;15.03;;;0.10;1.00;;;;;;5090033;28;20213;-75
2022/01/15 08:38:02;;;;;;;24.10;15.80;;;0.30;1.00;;;;;;5085851;28;20696;-76
2022/01/15 08:40:32;;;;;;;22.13;16.13;;;0.40;1.00;;;;;;5073054;28;20202;-75
2022/01/15 08:42:59;;;;;;;26.40;16.47;;;0.60;1.00;;;;;;5071208;28;20210;-75
2022/01/15 08:45:27;;;;;;;23.40;16.97;;;1.50;1.00;;;;;;5082634;28;20362;-76
2022/01/15 08:47:54;;;;;;;22.33;17.40;;;2.10;1.00;;;;;;5091384;28;20201;-75
2022/01/15 08:50:22;;;;;;;26.87;19.33;;;2.40;1.00;;;;;;5075110;28;20277;-75
2022/01/15 08:52:49;;;;;;;24.20;19.13;;;2.70;1.00;;;;;;5070939;28;20686;-76
2022/01/15 08:55:20;;;;;;;24.17;17.97;;;3.60;1.00;;;;;;5071122;28;20213;-78
2022/01/15 08:57:47;;;;;;;23.90;17.90;;;4.60;1.00;;;;;;5070583;28;20205;-78
2022/01/15 09:00:17;;;;;;;20.50;17.30;;;5.30;1.00;;;;;;5071060;28;20665;-77
2022/01/15 09:02:44;;;;;;;26.53;20.50;;;6.20;1.00;;;;;;5070651;28;20643;-76
2022/01/15 09:05:13;;;;;;;26.80;22.23;;;6.00;1.00;;;;;;5074275;28;20262;-75
2022/01/15 09:07:40;;;;;;;32.03;24.17;;;5.70;1.00;;;;;;5070592;28;20255;-77
2022/01/15 09:10:08;;;;;;;35.43;25.43;;;5.80;1.00;;;;;;5090069;28;20274;-74
2022/01/15 09:12:37;;;;;;;32.83;24.37;;;6.60;1.00;;;;;;5090790;28;20201;-77
2022/01/15 09:15:04;;;;;;;30.70;21.70;;;7.80;1.00;;;;;;5088917;28;20197;-73
2022/01/15 09:17:31;;;;;;;26.80;20.23;;;8.40;1.00;;;;;;5069936;28;20563;-74
2022/01/15 09:19:58;;;;;;;24.87;19.00;;;8.70;1.00;;;;;;5071016;28;20591;-74
2022/01/15 09:22:25;;;;;;;24.70;16.53;;;8.40;1.00;;;;;;5070596;28;20255;-75
2022/01/15 09:24:52;;;;;;;21.60;16.83;;;8.30;1.00;;;;;;5069996;28;20214;-78
2022/01/15 09:30:13;;;;;;;20.77;15.53;;;6.50;1.00;;;;;;5070854;28;20255;-79
2022/01/15 09:32:41;;;;;;;19.60;16.70;;;5.70;1.00;;;;;;5070509;28;20680;-75
2022/01/15 09:35:09;;;;;;;17.83;15.10;;;6.50;1.00;;;;;;5070631;28;20251;-75
2022/01/15 09:37:36;;;;;;;20.90;15.63;;;7.80;1.00;;;;;;5070254;28;20206;-75
2022/01/15 09:40:05;;;;;;;15.87;13.50;;;7.60;1.00;;;;;;5079504;28;20666;-76
2022/01/15 09:42:33;;;;;;;16.67;12.87;;;7.00;1.00;;;;;;5070149;28;20599;-76
2022/01/15 09:45:03;;;;;;;15.43;13.80;;;7.30;1.00;;;;;;5090006;28;20213;-76
2022/01/15 09:47:32;;;;;;;21.47;14.10;;;7.40;1.00;;;;;;5094953;28;20255;-76
2022/01/15 09:50:00;;;;;;;15.13;12.90;;;7.20;1.00;;;;;;5081986;28;20213;-76
2022/01/15 09:52:28;;;;;;;14.97;12.93;;;9.10;1.00;;;;;;5074423;28;20692;-76
2022/01/15 09:54:55;;;;;;;17.67;14.17;;;8.90;1.00;;;;;;5074401;28;20201;-79
2022/01/15 09:57:22;;;;;;;16.50;13.67;;;9.80;1.00;;;;;;5074169;28;20206;-79
2022/01/15 09:59:49;;;;;;;19.70;15.60;;;9.90;1.00;;;;;;5075449;28;20503;-79
2022/01/15 10:02:16;;;;;;;17.27;15.47;;;9.70;1.00;;;;;;5073614;28;20198;-79
2022/01/15 10:04:44;;;;;;;18.13;15.07;;;10.50;1.00;;;;;;5073766;28;20295;-79
2022/01/15 10:07:16;;;;;;;17.70;14.47;;;13.30;1.00;;;;;;5073942;28;20233;-79
2022/01/15 10:09:44;;;;;;;18.70;16.43;;;13.30;99.90;;;;;;5073805;28;20279;-79
2022/01/15 10:12:12;;;;;;;18.87;14.90;;;14.10;99.90;;;;;;5074082;28;20571;-78
2022/01/15 10:14:41;;;;;;;15.83;14.13;;;13.60;99.90;;;;;;5073559;28;20202;-78
2022/01/15 10:17:21;;;;;;;12.23;10.70;;;14.20;99.90;;;;;;5073966;28;20209;-79
2022/01/15 10:19:50;;;;;;;11.40;9.03;;;14.10;99.90;;;;;;5073322;28;20285;-79
2022/01/15 10:22:20;;;;;;;12.63;9.80;;;13.20;99.90;;;;;;5073623;28;20260;-76
2022/01/15 10:24:53;;;;;;;11.33;8.80;;;13.60;99.90;;;;;;5073207;28;20210;-76
2022/01/15 10:27:23;;;;;;;10.47;9.37;;;13.50;99.90;;;;;;5073598;28;20241;-78
2022/01/15 10:29:57;;;;;;;9.33;8.33;;;11.80;99.90;;;;;;5073372;28;20262;-78
2022/01/15 10:32:24;;;;;;;10.13;9.07;;;8.50;99.90;;;;;;5073674;28;20626;-78
2022/01/15 10:34:53;;;;;;;11.87;9.47;;;6.10;99.90;;;;;;5073461;28;20841;-79
2022/01/15 10:37:23;;;;;;;10.37;9.27;;;5.40;1.00;;;;;;5073466;28;20265;-75
2022/01/15 10:39:59;;;;;;;11.70;9.20;;;5.10;1.00;;;;;;5073105;28;20275;-76
2022/01/15 10:42:27;;;;;;;12.93;9.70;;;4.90;1.00;;;;;;5091166;28;20293;-76
2022/01/15 10:44:55;;;;;;;12.50;8.93;;;4.90;1.00;;;;;;5093698;28;20209;-75
2022/01/15 10:47:25;;;;;;;12.60;10.13;;;4.90;1.00;;;;;;5093736;28;20233;-76
2022/01/15 10:49:57;;;;;;;11.40;9.90;;;5.10;1.00;;;;;;5093474;28;20213;-75
2022/01/15 10:52:26;;;;;;;13.60;10.00;;;5.70;1.00;;;;;;5093312;28;20223;-77
2022/01/15 10:55:07;;;;;;;9.37;8.13;;;7.80;1.00;;;;;;5093172;28;20680;-77
2022/01/15 10:57:36;;;;;;;8.93;7.73;;;9.20;1.00;;;;;;5092598;28;20628;-76
2022/01/15 11:00:12;;;;;;;12.57;10.47;;;7.60;1.00;;;;;;5093464;28;20202;-77
2022/01/15 11:02:41;;;;;;;10.23;8.50;;;6.20;1.00;;;;;;5092975;28;20280;-77
2022/01/15 11:05:37;;;;;;;13.87;8.83;;;5.60;1.00;;;;;;5093510;28;20258;-76
2022/01/15 11:08:16;;;;;;;12.97;9.97;;;5.30;1.00;;;;;;5093254;28;20266;-76
2022/01/15 11:10:52;;;;;;;11.13;8.17;;;5.30;1.00;;;;;;5092731;28;20266;-76
2022/01/15 11:13:23;;;;;;;12.07;8.13;;;5.30;1.00;;;;;;5093376;28;20627;-76
2022/01/15 11:15:54;;;;;;;9.50;7.13;;;5.20;1.00;;;;;;5089516;28;20254;-77
2022/01/15 11:18:24;;;;;;;10.73;7.33;;;5.30;1.00;;;;;;5072801;28;20209;-77
2022/01/15 11:20:55;;;;;;;9.77;7.60;;;5.40;1.00;;;;;;5072448;28;20214;-78
2022/01/15 11:23:23;;;;;;;15.40;8.13;;;5.50;1.00;;;;;;5072706;28;20206;-77
2022/01/15 11:25:51;;;;;;;9.67;7.77;;;5.50;1.00;;;;;;5072317;28;20206;-77
2022/01/15 11:28:22;;;;;;;8.37;7.17;;;5.80;1.00;;;;;;5072723;28;20210;-78
2022/01/15 11:30:51;;;;;;;9.77;7.60;;;5.70;1.00;;;;;;5072262;28;20263;-78
2022/01/15 11:33:21;;;;;;;9.10;7.13;;;6.00;1.00;;;;;;5072701;28;20259;-78
2022/01/15 11:35:50;;;;;;;8.37;6.40;;;6.00;1.00;;;;;;5071894;28;20255;-78
2022/01/15 11:38:40;;;;;;;11.70;7.43;;;6.00;1.00;;;;;;5072432;28;20202;-78
2022/01/15 11:41:37;;;;;;;7.73;6.37;;;6.20;1.00;;;;;;5072561;28;20264;-77
2022/01/15 11:44:05;;;;;;;10.93;7.37;;;6.20;1.00;;;;;;5072477;28;20297;-78
2022/01/15 11:46:34;;;;;;;11.57;7.57;;;6.20;1.00;;;;;;5071698;28;20287;-77
2022/01/15 11:49:33;;;;;;;10.17;6.57;;;6.40;1.00;;;;;;5071900;28;20260;-76
2022/01/15 11:52:32;;;;;;;7.33;5.80;;;6.50;1.00;;;;;;5074805;28;20259;-77
2022/01/15 11:55:24;;;;;;;9.07;6.97;;;6.70;1.00;;;;;;5075399;28;20210;-77
2022/01/15 11:57:56;;;;;;;8.07;5.33;;;7.00;1.00;;;;;;5078389;28;20213;-77
2022/01/15 12:00:34;;;;;;;9.67;6.30;;;7.00;1.00;;;;;;5092353;28;20206;-78
2022/01/15 12:03:08;;;;;;;7.17;5.60;;;7.00;1.00;;;;;;5092074;28;20205;-78
2022/01/15 12:05:37;;;;;;;7.60;4.77;;;7.00;1.00;;;;;;5091881;28;20212;-78
2022/01/15 12:08:33;;;;;;;5.70;4.40;;;7.00;1.00;;;;;;5091471;28;20237;-78
2022/01/15 12:11:08;;;;;;;8.10;4.70;;;7.10;99.90;;;;;;5076946;28;20237;-78
2022/01/15 12:13:58;;;;;;;5.80;4.53;;;7.10;1.00;;;;;;5071400;28;20240;-77
2022/01/15 12:16:37;;;;;;;5.43;4.47;;;7.20;1.00;;;;;;5072040;28;20222;-77
2022/01/15 12:19:05;;;;;;;7.27;5.57;;;7.30;1.00;;;;;;5071582;28;20204;-78
2022/01/15 12:21:50;;;;;;;5.53;4.90;;;7.40;1.00;;;;;;5071452;28;20206;-77
2022/01/15 12:24:38;;;;;;;5.07;4.57;;;7.40;99.90;;;;;;5071341;28;20218;-78
2022/01/15 12:27:09;;;;;;;5.00;4.13;;;7.50;99.90;;;;;;5087170;28;20781;-78
2022/01/15 12:29:36;;;;;;;4.90;3.73;;;7.50;99.90;;;;;;5088179;28;20212;-76
2022/01/15 12:32:04;;;;;;;5.53;3.93;;;7.50;99.90;;;;;;5090216;28;20201;-78
2022/01/15 12:34:31;;;;;;;7.63;5.20;;;7.60;99.90;;;;;;5091596;28;20611;-76
2022/01/15 12:36:58;;;;;;;4.80;4.37;;;7.60;99.90;;;;;;5092186;28;20202;-74
2022/01/15 12:39:33;;;;;;;7.07;5.30;;;7.70;99.90;;;;;;5091494;28;20201;-75
2022/01/15 12:42:00;;;;;;;10.20;5.30;;;7.70;99.90;;;;;;5091692;28;20254;-76
2022/01/15 12:44:28;;;;;;;5.50;4.47;;;7.80;99.90;;;;;;5091858;28;20672;-75
2022/01/15 12:46:58;;;;;;;7.20;5.57;;;7.80;99.90;;;;;;5090988;28;20290;-73
2022/01/15 12:49:36;;;;;;;5.07;4.57;;;7.80;99.90;;;;;;5086366;28;20262;-72
2022/01/15 12:52:12;;;;;;;7.23;4.60;;;7.90;99.90;;;;;;5070873;28;20673;-74
2022/01/15 12:54:39;;;;;;;6.80;4.90;;;7.90;99.90;;;;;;5070917;28;20210;-71
2022/01/15 12:57:06;;;;;;;6.20;4.70;;;7.90;99.90;;;;;;5071097;28;20202;-74
2022/01/15 12:59:35;;;;;;;8.27;5.63;;;7.90;99.90;;;;;;5070631;28;20202;-72
2022/01/15 13:02:03;;;;;;;7.57;6.47;;;7.90;99.90;;;;;;5070880;28;20249;-74
2022/01/15 13:04:30;;;;;;;6.23;5.67;;;7.90;99.90;;;;;;5071008;28;20267;-74
2022/01/15 13:07:02;;;;;;;6.70;5.60;;;7.90;99.90;;;;;;5071201;28;20634;-77
2022/01/15 13:09:43;;;;;;;6.83;6.13;;;8.20;99.90;;;;;;5071273;28;20601;-73
2022/01/15 13:12:12;;;;;;;6.97;5.97;;;8.20;99.90;;;;;;5070830;28;20566;-74
2022/01/15 13:14:43;;;;;;;8.37;5.87;;;8.20;99.90;;;;;;5070414;28;20198;-72